CheckWX is a tool to help pilots better visualize weather data.  It is not intended as a substitute for an official pre-flight weather briefing.

15:18:36 UTC

KMTN METAR
Martin State Airport
Baltimore, Maryland, USA
Current

34 mins ago

KMTN 191445Z 11005KT 10SM SKC 08/M08 A3050
Observed
Mar-19 @ 14:45 UTC
Wind
  • 110° at 5 KTS
Visibility
10 SM
Flight Rules
VFR
Cloud Levels
  • Clear skies
Temperature
C / 46°F
Dewpoint
-8°C / 18°F
Humidity
32%
Altimeter
30.5" Hg
Pressure
1032.81 hPa
Previous

2 hours ago

KMTN 191345Z 00000KT 10SM SKC 07/M06 A3048
Observed
Mar-19 @ 13:45 UTC
Visibility
10 SM
Flight Rules
VFR
Cloud Levels
  • Clear skies
Temperature
C / 45°F
Dewpoint
-6°C / 21°F
Humidity
39%
Altimeter
30.48" Hg
Pressure
1032.21 hPa
Previous

3 hours ago

KMTN 191245Z 33003KT 10SM SKC 04/M06 A3047
Observed
Mar-19 @ 12:45 UTC
Wind
  • 330° at 3 KTS
Visibility
10 SM
Flight Rules
VFR
Cloud Levels
  • Clear skies
Temperature
C / 39°F
Dewpoint
-6°C / 21°F
Humidity
48%
Altimeter
30.47" Hg
Pressure
1031.81 hPa